Louisiana — WLOZ — position and weather

sailwx.info

Track history (hours):
 
Tides and Currents Weather Stations Pressure Air Temp Water Temp Dewpoint Dewpoint Depression Visibility Wind Speed Wind Dir Waves Ship Positions

Louisiana

Owner: Crowley Petroleum Services, Inc., Jacksonville, FL. More information available from US FCC via Universal Licensing System and Coast Guard Vessel Documentation Center.

Last reported at 2018-Jun-23 22:08 UTC. Time now 2018-Jun-25 00:12 UTC.
Position N 26°28' W 079°48'.

Length 183 m; draft 11.4 m.

Type: Tanker. MMSI: 338110000.

Date/timePositionNaut miles runAvg speedWind from/ knotsBaromVisibWave heightAir tempDewpointWater temp
2018-Jun-23 22:08N 26°28' W 079°48'215.6
2018-Jun-23 22:00N 26°26' W 079°48'815.6
2018-Jun-23 21:31N 26°18' W 079°48'815.5
2018-Jun-23 21:00N 26°11' W 079°48'815.4
2018-Jun-23 20:30N 26°03' W 079°49'815.5
2018-Jun-23 19:59N 25°55' W 079°51'816.4
2018-Jun-23 19:30N 25°47' W 079°53'815.4
2018-Jun-23 19:00N 25°40' W 079°54'815.4
2018-Jun-23 18:30N 25°32' W 079°55'815.2
2018-Jun-23 18:00N 25°25' W 079°56'  
Track history (hours):
 
Tides and Currents Weather Stations Pressure Air Temp Water Temp Dewpoint Dewpoint Depression Visibility Wind Speed Wind Dir Waves Ship Positions

Louisiana

Owner: Crowley Petroleum Services, Inc., Jacksonville, FL. More information available from US FCC via Universal Licensing System and Coast Guard Vessel Documentation Center.

Last reported at 2018-Jun-23 22:08 UTC. Time now 2018-Jun-25 00:12 UTC.
Position N 26°28' W 079°48'.

Length 183 m; draft 11.4 m.

Type: Tanker. MMSI: 338110000.

Date/timePositionNaut miles runAvg speedWind from/ knotsBaromVisibWave heightAir tempDewpointWater temp
2018-Jun-23 22:08N 26°28' W 079°48'215.6
2018-Jun-23 22:00N 26°26' W 079°48'815.6
2018-Jun-23 21:31N 26°18' W 079°48'815.5
2018-Jun-23 21:00N 26°11' W 079°48'815.4
2018-Jun-23 20:30N 26°03' W 079°49'815.5
2018-Jun-23 19:59N 25°55' W 079°51'816.4
2018-Jun-23 19:30N 25°47' W 079°53'815.4
2018-Jun-23 19:00N 25°40' W 079°54'815.4
2018-Jun-23 18:30N 25°32' W 079°55'815.2
2018-Jun-23 18:00N 25°25' W 079°56'  

Dump ship's entire track history